Plaucheville, Louisiana
Current Conditions -  °F | °C
As of 9:35 PM on Saturday 27 Dec 2014 (Local Time) from KHZR Reporting Station
Light Rain Light Rain  
Wind Chill: 72°   Ceiling: 800
Heat Index: 72°   Visibility: 7mi
Dew Point: 70°   Wind: 10mph
Humidity: 95%   Direction: 200°SSW
Pressure: 30.05"   Gusts: NA
Location:  30.97°N, 91.98°W
Report Text: KHZR 280335Z AUTO 20009KT 7SM -RA OVC008 22/21 A3005 RMK AO2 LTG DSNT NE AND E T02200211
Loading
Personal Weather Stations






























Interactive Weather Map New forecast layout! Learn more

10-Day Weather Forecast

Advertisements
Track Severe Weather on mobile